Time;durP1;ratioP1;P1;durP2;ratioP2;P2;SDS_P1;SDS_P2;PMS_P1;PMS_P2;Temp;Humidity;BMP_temperature;BMP_pressure;BME280_temperature;BME280_humidity;BME280_pressure;Samples;Min_cycle;Max_cycle;Signal;HPM_P1;HPM_P2
2022/12/03 00:00:57;;;;;;;11.60;8.90;;;;;;;-142.25;100.00;58004.16;5025185;28;20068;-61
2022/12/03 00:03:23;;;;;;;11.27;8.13;;;;;;;-142.25;100.00;58004.16;5007231;28;20050;-60
2022/12/03 00:05:48;;;;;;;12.10;8.60;;;;;;;-142.25;100.00;58004.16;5010847;28;20045;-59
2022/12/03 00:08:14;;;;;;;10.43;7.20;;;;;;;-142.25;100.00;58004.16;5010834;28;20046;-62
2022/12/03 00:10:39;;;;;;;10.63;6.77;;;;;;;-142.25;100.00;58004.16;5011219;28;20046;-62
2022/12/03 00:13:05;;;;;;;11.37;8.23;;;;;;;-142.25;100.00;58004.16;5010988;28;20046;-61
2022/12/03 00:15:30;;;;;;;10.17;7.77;;;;;;;-142.25;100.00;58004.16;5011399;28;20050;-58
2022/12/03 00:17:56;;;;;;;11.23;8.00;;;;;;;-142.25;100.00;58004.16;5009357;28;20126;-61
2022/12/03 00:20:23;;;;;;;12.23;8.07;;;;;;;-142.25;100.00;58004.16;5011082;28;20056;-60
2022/12/03 00:22:50;;;;;;;10.93;7.53;;;;;;;-142.25;100.00;58004.16;5010982;28;20049;-61
2022/12/03 00:25:15;;;;;;;10.07;7.13;;;;;;;-142.25;100.00;58004.16;5008796;28;20639;-61
2022/12/03 00:27:42;;;;;;;12.47;7.80;;;;;;;-142.25;100.00;58004.16;5009631;28;20446;-61
2022/12/03 00:30:08;;;;;;;9.37;6.37;;;;;;;-142.25;100.00;58004.16;5008617;28;20064;-60
2022/12/03 00:32:34;;;;;;;9.83;7.13;;;;;;;-142.25;100.00;58004.16;5009365;28;20057;-60
2022/12/03 00:35:00;;;;;;;11.53;7.60;;;;;;;-142.25;100.00;58004.16;5010687;28;20546;-61
2022/12/03 00:37:25;;;;;;;12.60;7.67;;;;;;;-142.25;100.00;58004.16;5010971;28;20073;-61
2022/12/03 00:39:54;;;;;;;9.87;7.57;;;;;;;-142.25;100.00;58004.16;5007972;28;20042;-60
2022/12/03 00:42:20;;;;;;;11.07;7.53;;;;;;;-142.25;100.00;58004.16;5008797;28;20496;-60
2022/12/03 00:44:45;;;;;;;12.10;7.87;;;;;;;-142.25;100.00;58004.16;5010361;28;20050;-62
2022/12/03 00:47:11;;;;;;;12.43;7.87;;;;;;;-142.25;100.00;58004.16;5008559;28;20104;-61
2022/12/03 00:49:37;;;;;;;10.23;7.10;;;;;;;-142.25;100.00;58004.16;5008895;28;20153;-61
2022/12/03 00:52:03;;;;;;;12.07;7.80;;;;;;;-142.25;100.00;58004.16;5011337;28;20073;-61
2022/12/03 00:54:28;;;;;;;14.67;8.07;;;;;;;-142.25;100.00;58004.16;5009564;28;20045;-61
2022/12/03 00:56:54;;;;;;;11.43;7.50;;;;;;;-142.25;100.00;58004.16;5011911;28;20136;-60
2022/12/03 00:59:20;;;;;;;15.37;8.97;;;;;;;-142.25;100.00;58004.16;5010283;28;20041;-61
2022/12/03 01:01:45;;;;;;;13.43;8.70;;;;;;;-142.25;100.00;58004.16;5014747;28;20042;-61
2022/12/03 01:04:11;;;;;;;15.17;7.83;;;;;;;-142.25;100.00;58004.16;5023069;28;20046;-61
2022/12/03 01:06:38;;;;;;;17.30;9.83;;;;;;;-142.25;100.00;58004.16;5010166;28;20064;-60
2022/12/03 01:09:03;;;;;;;15.23;10.07;;;;;;;-142.25;100.00;58004.16;5009388;28;20050;-61
2022/12/03 01:11:38;;;;;;;13.93;8.53;;;;;;;-142.25;100.00;58004.16;5007604;28;20450;-62
2022/12/03 01:14:15;;;;;;;15.30;9.15;;;;;;;-142.25;100.00;58004.16;5008748;28;20540;-61
2022/12/03 01:16:41;;;;;;;18.67;9.50;;;;;;;-142.25;100.00;58004.16;5012690;28;20042;-60
2022/12/03 01:19:09;;;;;;;15.83;9.20;;;;;;;-142.25;100.00;58004.16;5013220;28;20042;-61
2022/12/03 01:21:36;;;;;;;16.07;10.00;;;;;;;-142.25;100.00;58004.16;5012984;28;20061;-61
2022/12/03 01:24:03;;;;;;;17.17;10.33;;;;;;;-142.25;100.00;58004.16;5013235;28;20046;-61
2022/12/03 01:26:29;;;;;;;14.50;8.90;;;;;;;-142.25;100.00;58004.16;5013809;28;20045;-62
2022/12/03 01:28:54;;;;;;;16.27;10.57;;;;;;;-142.25;100.00;58004.16;5010876;28;20053;-61
2022/12/03 01:34:05;;;;;;;16.67;10.67;;;;;;;-142.25;100.00;58004.16;5013465;28;20076;-60
2022/12/03 01:36:33;;;;;;;17.00;10.20;;;;;;;-142.25;100.00;58004.16;5014292;28;20046;-59
2022/12/03 01:38:59;;;;;;;15.37;9.13;;;;;;;-142.25;100.00;58004.16;5011417;28;20030;-60
2022/12/03 01:41:25;;;;;;;15.47;9.03;;;;;;;-142.25;100.00;58004.16;5013123;28;20072;-62
2022/12/03 01:43:52;;;;;;;15.33;9.83;;;;;;;-142.25;100.00;58004.16;5013447;28;20046;-60
2022/12/03 01:46:23;;;;;;;13.63;8.83;;;;;;;-142.25;100.00;58004.16;5014751;28;20046;-60
2022/12/03 01:48:52;;;;;;;12.00;8.30;;;;;;;-142.25;100.00;58004.16;5014293;28;20041;-60
2022/12/03 01:51:18;;;;;;;17.43;9.53;;;;;;;-142.25;100.00;58004.16;5012159;28;20132;-60
2022/12/03 01:53:45;;;;;;;13.00;8.70;;;;;;;-142.25;100.00;58004.16;5011743;28;20069;-61
2022/12/03 01:56:15;;;;;;;15.37;8.97;;;;;;;-142.25;100.00;58004.16;5013928;28;20045;-60
2022/12/03 01:58:43;;;;;;;15.23;10.43;;;;;;;-142.25;100.00;58004.16;5012804;28;20065;-61
2022/12/03 02:01:17;;;;;;;13.20;9.33;;;;;;;-142.25;100.00;58004.16;5013645;28;20041;-61
2022/12/03 02:03:44;;;;;;;18.38;9.75;;;;;;;-142.25;100.00;58004.16;5011478;28;20053;-60
2022/12/03 02:06:18;;;;;;;15.87;9.80;;;;;;;-142.25;100.00;58004.16;5012345;28;20042;-60
2022/12/03 02:08:45;;;;;;;14.43;9.93;;;;;;;-142.25;100.00;58004.16;5012353;28;20736;-60
2022/12/03 02:11:26;;;;;;;13.30;9.63;;;;;;;-142.25;100.00;58004.16;5011411;28;20030;-60
2022/12/03 02:13:55;;;;;;;14.47;9.07;;;;;;;-142.25;100.00;58004.16;5012854;28;20038;-60
2022/12/03 02:16:22;;;;;;;14.67;9.27;;;;;;;-142.25;100.00;58004.16;5012786;28;20042;-61
2022/12/03 02:18:48;;;;;;;13.53;9.10;;;;;;;-142.25;100.00;58004.16;5012877;28;20046;-59
2022/12/03 02:21:26;;;;;;;12.70;8.07;;;;;;;-142.25;100.00;58004.16;5011955;28;20428;-60
2022/12/03 02:24:04;;;;;;;18.10;10.53;;;;;;;-142.25;100.00;58004.16;5013063;28;20049;-60
2022/12/03 02:26:30;;;;;;;15.00;9.10;;;;;;;-142.25;100.00;58004.16;5011489;28;20145;-60
2022/12/03 02:28:56;;;;;;;15.70;9.10;;;;;;;-142.25;100.00;58004.16;5012326;28;20148;-60
2022/12/03 02:31:22;;;;;;;14.97;8.77;;;;;;;-142.25;100.00;58004.16;5029167;28;20069;-61
2022/12/03 02:33:49;;;;;;;16.07;10.00;;;;;;;-142.25;100.00;58004.16;5013021;28;20451;-59
2022/12/03 02:36:15;;;;;;;10.90;8.07;;;;;;;-142.25;100.00;58004.16;5010971;28;20041;-62
2022/12/03 02:38:44;;;;;;;14.37;10.17;;;;;;;-142.25;100.00;58004.16;5010301;28;20103;-61
2022/12/03 02:42:33;;;;;;;14.97;8.97;;;;;;;-142.25;100.00;58004.16;5011366;28;20520;-59
2022/12/03 02:43:59;;;;;;;17.30;11.17;;;;;;;-142.25;100.00;58004.16;5006402;28;20046;-62
2022/12/03 02:46:25;;;;;;;15.80;9.97;;;;;;;-142.25;100.00;58004.16;5012529;28;20111;-60
2022/12/03 02:48:51;;;;;;;14.20;8.73;;;;;;;-142.25;100.00;58004.16;5028705;28;20038;-60
2022/12/03 02:51:16;;;;;;;16.13;10.40;;;;;;;-142.25;100.00;58004.16;5010186;28;20452;-60
2022/12/03 02:53:46;;;;;;;14.97;9.43;;;;;;;-142.25;100.00;58004.16;5011817;28;20168;-61
2022/12/03 02:56:19;;;;;;;14.63;8.67;;;;;;;-142.25;100.00;58004.16;5012276;28;20046;-61
2022/12/03 02:58:47;;;;;;;16.77;9.53;;;;;;;-142.25;100.00;58004.16;5012618;28;20067;-60
2022/12/03 03:01:16;;;;;;;14.60;8.23;;;;;;;-142.25;100.00;58004.16;5011802;28;20048;-62
2022/12/03 03:03:45;;;;;;;16.00;9.73;;;;;;;-142.25;100.00;58004.16;5012748;28;20037;-61
2022/12/03 03:06:11;;;;;;;14.47;8.83;;;;;;;-142.25;100.00;58004.16;5030414;28;20049;-61
2022/12/03 03:08:38;;;;;;;15.00;9.07;;;;;;;-142.25;100.00;58004.16;5016470;28;20050;-60
2022/12/03 03:11:03;;;;;;;15.37;9.43;;;;;;;-142.25;100.00;58004.16;5014756;28;20034;-59
2022/12/03 03:13:31;;;;;;;14.57;9.03;;;;;;;-142.25;100.00;58004.16;5014384;28;20615;-61
2022/12/03 03:15:57;;;;;;;14.67;9.43;;;;;;;-142.25;100.00;58004.16;5008426;28;20084;-61
2022/12/03 03:18:23;;;;;;;16.40;9.30;;;;;;;-142.25;100.00;58004.16;5012577;28;20053;-61
2022/12/03 03:20:50;;;;;;;14.23;9.40;;;;;;;-142.25;100.00;58004.16;5013476;28;20038;-60
2022/12/03 03:23:18;;;;;;;17.60;9.80;;;;;;;-142.25;100.00;58004.16;5012961;28;20056;-59
2022/12/03 03:25:47;;;;;;;20.00;11.07;;;;;;;-142.25;100.00;58004.16;5004092;28;20060;-60
2022/12/03 03:28:14;;;;;;;20.60;11.63;;;;;;;-142.25;100.00;58004.16;5006495;28;20529;-60
2022/12/03 03:30:41;;;;;;;17.20;10.70;;;;;;;-142.25;100.00;58004.16;5003401;28;20124;-60
2022/12/03 03:33:07;;;;;;;18.53;10.60;;;;;;;-142.25;100.00;58004.16;5016992;28;20052;-60
2022/12/03 03:35:34;;;;;;;18.07;11.20;;;;;;;-142.25;100.00;58004.16;4970632;28;20418;-60
2022/12/03 03:38:00;;;;;;;17.53;10.57;;;;;;;-142.25;100.00;58004.16;5010846;28;20111;-60
2022/12/03 03:40:27;;;;;;;18.53;10.90;;;;;;;-142.25;100.00;58004.16;5010976;28;20061;-60
2022/12/03 03:42:54;;;;;;;20.93;11.70;;;;;;;-142.25;100.00;58004.16;5010974;28;20049;-60
2022/12/03 03:45:19;;;;;;;17.90;11.33;;;;;;;-142.25;100.00;58004.16;5009303;28;20054;-60
2022/12/03 03:47:45;;;;;;;18.07;10.97;;;;;;;-142.25;100.00;58004.16;5012234;28;20103;-60
2022/12/03 03:50:12;;;;;;;22.53;12.40;;;;;;;-142.25;100.00;58004.16;5025615;28;20050;-59
2022/12/03 03:52:39;;;;;;;22.23;12.20;;;;;;;-142.25;100.00;58004.16;5009486;28;20053;-60
2022/12/03 03:55:06;;;;;;;20.63;11.97;;;;;;;-142.25;100.00;58004.16;5008435;28;20576;-61
2022/12/03 03:57:32;;;;;;;17.87;12.23;;;;;;;-142.25;100.00;58004.16;5010095;28;20123;-59
2022/12/03 03:59:58;;;;;;;21.37;11.43;;;;;;;-142.25;100.00;58004.16;5011029;28;20049;-60
2022/12/03 04:02:25;;;;;;;19.77;10.93;;;;;;;-142.25;100.00;58004.16;5008809;28;20081;-59
2022/12/03 04:04:52;;;;;;;19.73;11.03;;;;;;;-142.25;100.00;58004.16;5011397;28;20551;-60
2022/12/03 04:07:19;;;;;;;18.27;11.23;;;;;;;-142.25;100.00;58004.16;5010211;28;20200;-62
2022/12/03 04:09:44;;;;;;;15.97;10.70;;;;;;;-142.25;100.00;58004.16;5004531;28;20045;-62
2022/12/03 04:14:56;;;;;;;17.02;10.77;;;;;;;-142.25;100.00;58004.16;5011229;28;20054;-61
2022/12/03 04:17:22;;;;;;;19.20;11.47;;;;;;;-142.25;100.00;58004.16;5024886;28;20045;-60
2022/12/03 04:19:47;;;;;;;19.47;11.57;;;;;;;-142.25;100.00;58004.16;5009457;28;20559;-62
2022/12/03 04:30:26;;;;;;;17.43;9.83;;;;;;;-142.25;100.00;58004.16;5009362;28;20044;-60
2022/12/03 04:35:42;;;;;;;19.53;9.83;;;;;;;-142.25;100.00;58004.16;5011611;28;20045;-60
2022/12/03 04:38:12;;;;;;;16.23;10.07;;;;;;;-142.25;100.00;58004.16;5009075;28;20064;-60
2022/12/03 04:43:23;;;;;;;16.42;9.93;;;;;;;-142.25;100.00;58004.16;5011131;28;20430;-61
2022/12/03 04:45:52;;;;;;;19.67;9.97;;;;;;;-142.25;100.00;58004.16;5011340;28;20055;-59
2022/12/03 04:48:18;;;;;;;18.60;9.43;;;;;;;-142.25;100.00;58004.16;5026906;28;20053;-60
2022/12/03 04:50:43;;;;;;;17.23;9.37;;;;;;;-142.25;100.00;58004.16;5010830;28;20093;-60
2022/12/03 04:53:09;;;;;;;16.67;9.37;;;;;;;-142.25;100.00;58004.16;5014327;28;20114;-61
2022/12/03 04:55:35;;;;;;;16.80;9.83;;;;;;;-142.25;100.00;58004.16;5029947;28;20073;-60
2022/12/03 04:58:01;;;;;;;15.13;8.30;;;;;;;-142.25;100.00;58004.16;5013052;28;20052;-63
2022/12/03 05:00:27;;;;;;;16.10;9.13;;;;;;;-142.25;100.00;58004.16;5012555;28;20121;-60
2022/12/03 05:02:52;;;;;;;15.17;9.40;;;;;;;-142.25;100.00;58004.16;4998202;28;20488;-61
2022/12/03 05:05:18;;;;;;;17.03;9.63;;;;;;;-142.25;100.00;58004.16;5010255;28;20061;-60
2022/12/03 05:07:43;;;;;;;16.40;10.07;;;;;;;-142.25;100.00;58004.16;5005564;28;20587;-60
2022/12/03 05:10:11;;;;;;;18.27;10.70;;;;;;;-142.25;100.00;58004.16;5012520;28;20088;-60
2022/12/03 05:12:37;;;;;;;19.87;11.23;;;;;;;-142.25;100.00;58004.16;5014536;28;20049;-60
2022/12/03 05:15:04;;;;;;;18.40;12.30;;;;;;;-142.25;100.00;58004.16;5013366;28;20173;-60
2022/12/03 05:17:30;;;;;;;16.73;10.67;;;;;;;-142.25;100.00;58004.16;5014075;28;20409;-60
2022/12/03 05:22:40;;;;;;;18.83;10.53;;;;;;;-142.25;100.00;58004.16;5014146;28;20042;-60
2022/12/03 05:25:06;;;;;;;17.90;9.60;;;;;;;-142.25;100.00;58004.16;5013378;28;20108;-61
2022/12/03 05:27:31;;;;;;;19.90;10.43;;;;;;;-142.25;100.00;58004.16;5011246;28;20026;-60
2022/12/03 05:29:57;;;;;;;20.70;11.77;;;;;;;-142.25;100.00;58004.16;5014335;28;20042;-60
2022/12/03 05:32:23;;;;;;;17.63;10.67;;;;;;;-142.25;100.00;58004.16;5014258;28;20492;-61
2022/12/03 05:34:48;;;;;;;17.60;9.70;;;;;;;-142.25;100.00;58004.16;5014316;28;20049;-62
2022/12/03 05:37:14;;;;;;;18.07;9.83;;;;;;;-142.25;100.00;58004.16;5014539;28;20037;-61
2022/12/03 05:39:40;;;;;;;18.10;9.97;;;;;;;-142.25;100.00;58004.16;5013620;28;20493;-60
2022/12/03 05:44:50;;;;;;;17.33;10.77;;;;;;;-142.25;100.00;58004.16;5013152;28;20064;-59
2022/12/03 05:47:15;;;;;;;21.03;10.77;;;;;;;-142.25;100.00;58004.16;5012177;28;20061;-61
2022/12/03 05:49:41;;;;;;;18.30;10.90;;;;;;;-142.25;100.00;58004.16;5011473;28;20037;-60
2022/12/03 05:52:07;;;;;;;20.37;11.07;;;;;;;-142.25;100.00;58004.16;5006869;28;20045;-62
2022/12/03 05:54:32;;;;;;;20.70;11.27;;;;;;;-142.25;100.00;58004.16;5022551;28;20049;-61
2022/12/03 05:56:59;;;;;;;20.37;11.40;;;;;;;-142.25;100.00;58004.16;5011373;28;20058;-64
2022/12/03 05:59:25;;;;;;;18.17;10.37;;;;;;;-142.25;100.00;58004.16;5011623;28;20041;-61
2022/12/03 06:01:50;;;;;;;18.83;11.23;;;;;;;-142.25;100.00;58004.16;5011360;28;20108;-61
2022/12/03 06:04:16;;;;;;;18.93;11.07;;;;;;;-142.25;100.00;58004.16;5010539;28;20117;-59
2022/12/03 06:06:41;;;;;;;20.37;10.97;;;;;;;-142.25;100.00;58004.16;5014583;28;20435;-61
2022/12/03 06:09:07;;;;;;;19.90;10.63;;;;;;;-142.25;100.00;58004.16;5012502;28;20046;-60
2022/12/03 06:11:33;;;;;;;19.77;11.47;;;;;;;-142.25;100.00;58004.16;5011879;28;20037;-61
2022/12/03 06:13:59;;;;;;;17.60;10.73;;;;;;;-142.25;100.00;58004.16;5008249;28;20124;-60
2022/12/03 06:16:25;;;;;;;17.83;10.60;;;;;;;-142.25;100.00;58004.16;5011721;28;20154;-61
2022/12/03 06:18:51;;;;;;;18.73;11.30;;;;;;;-142.25;100.00;58004.16;5013514;28;20045;-60
2022/12/03 06:21:16;;;;;;;18.53;10.17;;;;;;;-142.25;100.00;58004.16;5011993;28;20115;-60
2022/12/03 06:23:43;;;;;;;19.13;10.80;;;;;;;-142.25;100.00;58004.16;5009625;28;20045;-61
2022/12/03 06:26:13;;;;;;;23.40;13.57;;;;;;;-142.25;100.00;58004.16;5011663;28;20056;-61
2022/12/03 06:28:44;;;;;;;21.83;10.53;;;;;;;-142.25;100.00;58004.16;5006910;28;20100;-61
2022/12/03 06:31:10;;;;;;;21.83;10.77;;;;;;;-142.25;100.00;58004.16;5028158;28;20044;-61
2022/12/03 06:33:35;;;;;;;20.43;10.67;;;;;;;-142.25;100.00;58004.16;5010727;28;20050;-61
2022/12/03 06:36:03;;;;;;;21.97;10.50;;;;;;;-142.25;100.00;58004.16;5012896;28;20049;-62
2022/12/03 06:38:29;;;;;;;22.17;11.40;;;;;;;-142.25;100.00;58004.16;5012187;28;20041;-61
2022/12/03 06:40:54;;;;;;;18.80;11.43;;;;;;;-142.25;100.00;58004.16;5010403;28;20045;-61
2022/12/03 06:43:20;;;;;;;19.77;11.23;;;;;;;-142.25;100.00;58004.16;5011752;28;20054;-61
2022/12/03 06:45:45;;;;;;;19.80;11.07;;;;;;;-142.25;100.00;58004.16;5007073;28;20042;-61
2022/12/03 06:48:11;;;;;;;19.90;10.83;;;;;;;-142.25;100.00;58004.16;5016748;28;20046;-60
2022/12/03 06:50:37;;;;;;;18.20;10.97;;;;;;;-142.25;100.00;58004.16;5005644;28;20140;-61
2022/12/03 06:53:02;;;;;;;19.50;11.03;;;;;;;-142.25;100.00;58004.16;5028273;28;20186;-60
2022/12/03 06:55:28;;;;;;;21.40;11.90;;;;;;;-142.25;100.00;58004.16;5010917;28;20429;-60
2022/12/03 06:57:53;;;;;;;20.57;10.67;;;;;;;-142.25;100.00;58004.16;4999261;28;20062;-61
2022/12/03 07:00:19;;;;;;;17.80;11.10;;;;;;;-142.25;100.00;58004.16;4997854;28;20049;-60
2022/12/03 07:02:45;;;;;;;19.30;10.43;;;;;;;-142.25;100.00;58004.16;5009996;28;20613;-59
2022/12/03 07:05:12;;;;;;;19.27;11.53;;;;;;;-142.25;100.00;58004.16;5010797;28;20070;-60
2022/12/03 07:07:38;;;;;;;20.33;12.00;;;;;;;-142.25;100.00;58004.16;5012327;28;20121;-60
2022/12/03 07:10:04;;;;;;;20.63;11.17;;;;;;;-142.25;100.00;58004.16;5011155;28;20054;-60
2022/12/03 07:12:31;;;;;;;22.00;11.33;;;;;;;-142.25;100.00;58004.16;5000020;28;20111;-60
2022/12/03 07:14:57;;;;;;;20.37;12.27;;;;;;;-142.25;100.00;58004.16;4994299;28;20044;-61
2022/12/03 07:17:22;;;;;;;23.10;12.03;;;;;;;-142.25;100.00;58004.16;5008804;28;20034;-61
2022/12/03 07:19:48;;;;;;;22.23;11.57;;;;;;;-142.25;100.00;58004.16;5007800;28;20107;-61
2022/12/03 07:22:13;;;;;;;20.87;13.23;;;;;;;-142.25;100.00;58004.16;5009516;28;20151;-60
2022/12/03 07:24:43;;;;;;;25.63;13.43;;;;;;;-142.25;100.00;58004.16;5009998;28;20045;-60
2022/12/03 07:27:08;;;;;;;25.60;13.03;;;;;;;-142.25;100.00;58004.16;5011120;28;20044;-61
2022/12/03 07:29:34;;;;;;;26.60;12.97;;;;;;;-142.25;100.00;58004.16;5009494;28;20046;-60
2022/12/03 07:31:59;;;;;;;25.30;14.60;;;;;;;-142.25;100.00;58004.16;5012449;28;20045;-59
2022/12/03 07:34:26;;;;;;;28.90;15.43;;;;;;;-142.25;100.00;58004.16;5010784;28;20046;-60
2022/12/03 07:36:52;;;;;;;28.17;15.10;;;;;;;-142.25;100.00;58004.16;5005749;28;20251;-61
2022/12/03 07:39:18;;;;;;;33.53;15.17;;;;;;;-142.25;100.00;58004.16;5004949;28;20041;-60
2022/12/03 07:41:43;;;;;;;32.30;16.53;;;;;;;-142.25;100.00;58004.16;5005038;28;20056;-61
2022/12/03 07:44:09;;;;;;;27.53;15.07;;;;;;;-142.25;100.00;58004.16;5001566;28;20045;-60
2022/12/03 07:46:34;;;;;;;31.83;14.90;;;;;;;-142.25;100.00;58004.16;5005378;28;20033;-63
2022/12/03 07:49:02;;;;;;;29.70;15.03;;;;;;;-142.25;100.00;58004.16;5007586;28;20112;-62
2022/12/03 07:51:28;;;;;;;27.77;15.63;;;;;;;-142.25;100.00;58004.16;5008320;28;20592;-62
2022/12/03 07:53:53;;;;;;;31.30;15.93;;;;;;;-142.25;100.00;58004.16;5009318;28;20050;-62
2022/12/03 07:56:19;;;;;;;34.03;16.77;;;;;;;-142.25;100.00;58004.16;5004922;28;20136;-61
2022/12/03 07:58:45;;;;;;;28.47;15.77;;;;;;;-142.25;100.00;58004.16;5008121;28;20908;-61
2022/12/03 08:01:10;;;;;;;26.63;14.30;;;;;;;-142.25;100.00;58004.16;5007556;28;20045;-61
2022/12/03 08:03:37;;;;;;;24.63;14.37;;;;;;;-142.25;100.00;58004.16;5010513;28;20110;-59
2022/12/03 08:06:03;;;;;;;29.90;14.77;;;;;;;-142.25;100.00;58004.16;5010324;28;20482;-62
2022/12/03 08:08:28;;;;;;;27.07;15.40;;;;;;;-142.25;100.00;58004.16;5008413;28;20041;-60
2022/12/03 08:10:54;;;;;;;27.53;16.23;;;;;;;-142.25;100.00;58004.16;5009295;28;20168;-61
2022/12/03 08:13:19;;;;;;;30.80;16.13;;;;;;;-142.25;100.00;58004.16;5009765;28;20065;-61
2022/12/03 08:15:45;;;;;;;29.90;15.80;;;;;;;-142.25;100.00;58004.16;5007492;28;20600;-61
2022/12/03 08:18:17;;;;;;;28.17;16.10;;;;;;;-142.25;100.00;58004.16;5008925;28;20050;-62
2022/12/03 08:20:45;;;;;;;30.20;17.67;;;;;;;-142.25;100.00;58004.16;5005841;28;20072;-60
2022/12/03 08:23:19;;;;;;;26.93;15.07;;;;;;;-142.25;100.00;58004.16;5008172;28;20041;-60
2022/12/03 08:25:45;;;;;;;27.07;15.60;;;;;;;-142.25;100.00;58004.16;5009507;28;20095;-60
2022/12/03 08:28:22;;;;;;;27.57;14.83;;;;;;;-142.25;100.00;58004.16;5006317;28;20046;-61
2022/12/03 08:31:06;;;;;;;22.07;13.97;;;;;;;-142.25;100.00;58004.16;5009588;28;20115;-62
2022/12/03 08:33:35;;;;;;;29.53;15.77;;;;;;;-142.25;100.00;58004.16;5005579;28;20536;-61
2022/12/03 08:36:22;;;;;;;26.83;14.33;;;;;;;-142.25;100.00;58004.16;5004809;28;20447;-61
2022/12/03 08:38:56;;;;;;;26.30;14.03;;;;;;;-142.25;100.00;58004.16;5003200;28;20034;-62
2022/12/03 08:44:14;;;;;;;21.77;12.23;;;;;;;-142.25;100.00;58004.16;5009923;28;20385;-61
2022/12/03 08:46:39;;;;;;;19.30;12.13;;;;;;;-142.25;100.00;58004.16;5003045;28;20053;-62
2022/12/03 08:49:05;;;;;;;22.53;13.50;;;;;;;-142.25;100.00;58004.16;5000893;28;20584;-62
2022/12/03 08:51:31;;;;;;;25.20;13.90;;;;;;;-142.25;100.00;58004.16;5023425;28;20308;-61
2022/12/03 08:54:06;;;;;;;25.20;14.13;;;;;;;-142.25;100.00;58004.16;5007941;28;20050;-60
2022/12/03 08:56:35;;;;;;;20.07;11.63;;;;;;;-142.25;100.00;58004.16;5003825;28;20041;-60
2022/12/03 08:59:23;;;;;;;20.93;12.87;;;;;;;-142.25;100.00;58004.16;5003783;28;20049;-61
2022/12/03 09:01:50;;;;;;;16.67;9.57;;;;;;;-142.25;100.00;58004.16;5008952;28;20536;-59
2022/12/03 09:04:20;;;;;;;22.43;11.80;;;;;;;-142.25;100.00;58004.16;5005648;28;20504;-61
2022/12/03 09:06:46;;;;;;;18.83;10.80;;;;;;;-142.25;100.00;58004.16;4995168;28;20623;-60
2022/12/03 09:09:12;;;;;;;19.90;11.73;;;;;;;-142.25;100.00;58004.16;4995726;28;20575;-59
2022/12/03 09:11:38;;;;;;;19.70;11.03;;;;;;;-142.25;100.00;58004.16;5001451;28;20037;-59
2022/12/03 09:14:03;;;;;;;21.23;11.90;;;;;;;-142.25;100.00;58004.16;5004655;28;20051;-60
2022/12/03 09:16:29;;;;;;;21.13;13.47;;;;;;;-142.25;100.00;58004.16;5006092;28;20034;-60
2022/12/03 09:18:55;;;;;;;20.83;12.40;;;;;;;-142.25;100.00;58004.16;5008693;28;20050;-61
2022/12/03 09:21:20;;;;;;;23.33;13.60;;;;;;;-142.25;100.00;58004.16;5011901;28;20454;-62
2022/12/03 09:23:46;;;;;;;24.47;13.67;;;;;;;-142.25;100.00;58004.16;5011536;28;20872;-62
2022/12/03 09:26:11;;;;;;;17.23;12.70;;;;;;;-142.25;100.00;58004.16;5009595;28;20373;-61
2022/12/03 09:28:37;;;;;;;17.73;11.80;;;;;;;-142.25;100.00;58004.16;5008536;28;20107;-61
2022/12/03 09:31:02;;;;;;;19.33;12.30;;;;;;;-142.25;100.00;58004.16;5008380;28;20042;-60
2022/12/03 09:33:31;;;;;;;20.73;12.80;;;;;;;-142.25;100.00;58004.16;5017390;28;20082;-60
2022/12/03 09:35:58;;;;;;;21.40;13.43;;;;;;;-142.25;100.00;58004.16;4987831;28;20498;-60
2022/12/03 09:38:23;;;;;;;23.27;13.17;;;;;;;-142.25;100.00;58004.16;5006289;28;20046;-60
2022/12/03 09:40:49;;;;;;;23.70;14.40;;;;;;;-142.25;100.00;58004.16;5009957;28;20112;-60
2022/12/03 09:43:15;;;;;;;23.13;13.80;;;;;;;-142.25;100.00;58004.16;5009870;28;20362;-61
2022/12/03 09:45:44;;;;;;;23.43;13.60;;;;;;;-142.25;100.00;58004.16;5024647;28;20487;-61
2022/12/03 09:48:12;;;;;;;22.80;13.27;;;;;;;-142.25;100.00;58004.16;5011019;28;20052;-60
2022/12/03 09:50:40;;;;;;;19.57;11.33;;;;;;;-142.25;100.00;58004.16;5011134;28;20030;-60
2022/12/03 09:53:11;;;;;;;25.53;15.83;;;;;;;-142.25;100.00;58004.16;5004332;28;20037;-60
2022/12/03 09:55:45;;;;;;;23.83;13.77;;;;;;;-142.25;100.00;58004.16;5021263;28;20045;-61
2022/12/03 09:58:12;;;;;;;24.37;14.00;;;;;;;-142.25;100.00;58004.16;5011223;28;20128;-60
2022/12/03 10:00:41;;;;;;;25.37;15.57;;;;;;;-142.25;100.00;58004.16;5011255;28;20026;-60
2022/12/03 10:03:11;;;;;;;28.33;15.77;;;;;;;-142.25;100.00;58004.16;5010888;28;20536;-60
2022/12/03 10:05:38;;;;;;;26.57;15.13;;;;;;;-142.25;100.00;58004.16;5011109;28;20084;-60
2022/12/03 10:08:07;;;;;;;24.93;15.23;;;;;;;-142.25;100.00;58004.16;5008221;28;20053;-66
2022/12/03 10:10:34;;;;;;;25.63;14.87;;;;;;;-142.25;100.00;58004.16;5011732;28;20030;-62
2022/12/03 10:13:00;;;;;;;27.43;15.20;;;;;;;-142.25;100.00;58004.16;5024850;28;20049;-60
2022/12/03 10:15:26;;;;;;;25.77;15.13;;;;;;;-142.25;100.00;58004.16;5013527;28;20184;-59
2022/12/03 10:17:53;;;;;;;26.67;15.70;;;;;;;-142.25;100.00;58004.16;5011376;28;20050;-58
2022/12/03 10:20:22;;;;;;;26.63;14.83;;;;;;;-142.25;100.00;58004.16;5008517;28;20037;-59
2022/12/03 10:22:48;;;;;;;24.50;14.23;;;;;;;-142.25;100.00;58004.16;5007132;28;20037;-60
2022/12/03 10:25:17;;;;;;;28.77;15.47;;;;;;;-142.25;100.00;58004.16;5011145;28;20103;-60
2022/12/03 10:28:02;;;;;;;26.97;16.03;;;;;;;-142.25;100.00;58004.16;5009994;28;20045;-60
2022/12/03 10:30:28;;;;;;;;;;;;;;;-142.25;100.00;58004.16;5026034;28;20517;-60
2022/12/03 10:32:56;;;;;;;27.30;15.73;;;;;;;-142.25;100.00;58004.16;5012100;28;19927;-60
2022/12/03 10:35:42;;;;;;;24.23;15.97;;;;;;;-142.25;100.00;58004.16;5010710;28;20044;-60
2022/12/03 10:38:17;;;;;;;27.33;15.73;;;;;;;-142.25;100.00;58004.16;5024489;28;20343;-59
2022/12/03 10:40:42;;;;;;;26.42;14.65;;;;;;;-142.25;100.00;58004.16;5009109;28;20041;-59
2022/12/03 10:43:11;;;;;;;25.27;15.00;;;;;;;-142.25;100.00;58004.16;5010919;28;20038;-59
2022/12/03 10:45:36;;;;;;;26.57;13.43;;;;;;;-142.25;100.00;58004.16;5009662;28;20061;-57
2022/12/03 10:48:15;;;;;;;24.33;15.17;;;;;;;-142.25;100.00;58004.16;5010024;28;20037;-58
2022/12/03 10:50:55;;;;;;;25.73;12.80;;;;;;;-142.25;100.00;58004.16;5007377;28;20096;-60
2022/12/03 10:53:24;;;;;;;25.60;14.83;;;;;;;-142.25;100.00;58004.16;5010138;28;20041;-59
2022/12/03 10:55:51;;;;;;;23.47;13.63;;;;;;;-142.25;100.00;58004.16;5009637;28;20103;-59
2022/12/03 10:58:21;;;;;;;28.43;14.33;;;;;;;-142.25;100.00;58004.16;5007963;28;20050;-59
2022/12/03 11:00:47;;;;;;;26.77;14.20;;;;;;;-142.25;100.00;58004.16;5009365;28;20034;-61
2022/12/03 11:03:19;;;;;;;23.17;13.53;;;;;;;-142.25;100.00;58004.16;5010219;28;20045;-60
2022/12/03 11:05:45;;;;;;;28.33;14.90;;;;;;;-142.25;100.00;58004.16;5007648;28;20037;-60
2022/12/03 11:08:29;;;;;;;25.03;14.53;;;;;;;-142.25;100.00;58004.16;5010339;28;20938;-60
2022/12/03 11:11:03;;;;;;;24.53;13.83;;;;;;;-142.25;100.00;58004.16;5009825;28;20056;-61
2022/12/03 11:13:51;;;;;;;24.97;14.30;;;;;;;-142.25;100.00;58004.16;5009772;28;20106;-59
2022/12/03 11:16:52;;;;;;;27.73;14.43;;;;;;;-142.25;100.00;58004.16;5007215;28;20038;-60
2022/12/03 11:19:37;;;;;;;31.63;15.23;;;;;;;-142.25;100.00;58004.16;4977044;28;20046;-59
2022/12/03 11:22:08;;;;;;;26.08;16.08;;;;;;;-142.25;100.00;58004.16;5004910;28;20038;-60
2022/12/03 11:24:39;;;;;;;29.63;15.30;;;;;;;-142.25;100.00;58004.16;5022665;28;20057;-59
2022/12/03 11:27:15;;;;;;;23.07;13.77;;;;;;;-142.25;100.00;58004.16;5006011;28;20042;-59